»·PEaware :: SWA1 KLAX-KPDX

SWA1 :: KLAX-KPDX

FLIGHT INFORMATION

Flight Status: Arrived
Operator:
Southwest Airlines
More flights by this operator :: More flights under this callsign
Pilot: Maximilliano F. (23467)
Aircraft: BOEING 737-800
(B738)
More flights by this aircraft type
Origin: KLAX Los Angeles Intl
United States
Destination: KPDX Portland Intl
United States
More flights between these airports :: More routes between these airports
Route: SUMMR1 SCTRR SNS SPNSR TMBRS2
File this flight plan on PilotEdge
Remarks: RMK / SIMBRIEF
Altitude:
(Current/Filed)
36,000ft
Speed:
(Current/Filed)
459kts
Departed: 04-Nov-19 04:45 PM
Arrived: 04-Nov-19 06:52 PM
Distance/Time
Traveled:
725nm/2:07
Distance/Time
To Go:
Arrived

Flight Plot

Page will automatically refresh every two minutes.

Flight plan parsing failed; only flown route is shown


Map Options




Map Legend


Flown Route
Filed Route
Departure Airport
Arrival Airport
Navaid (VOR, NDB)
Fix

Horizontal Profiles

Position Reports

Time Latitude Longitude Heading Altitude Ground
Speed
04-Nov-19 16:09 33.946934 -118.400612 262 121ft 0kts
04-Nov-19 16:10 33.946934 -118.400612 262 121ft 0kts
04-Nov-19 16:11 33.946934 -118.400612 262 121ft 0kts
04-Nov-19 16:12 33.946934 -118.400612 262 121ft 0kts
04-Nov-19 16:13 33.946934 -118.400612 262 121ft 0kts
04-Nov-19 16:14 33.946934 -118.400612 262 121ft 0kts
04-Nov-19 16:15 33.946934 -118.400612 262 121ft 0kts
04-Nov-19 16:16 33.946934 -118.400612 262 121ft 0kts
04-Nov-19 16:17 33.946934 -118.400612 262 121ft 0kts
04-Nov-19 16:18 33.946934 -118.400612 262 121ft 0kts
04-Nov-19 16:19 33.946934 -118.400612 262 121ft 0kts
04-Nov-19 16:20 33.946934 -118.400612 262 121ft 0kts
04-Nov-19 16:21 33.946934 -118.400612 262 121ft 0kts
04-Nov-19 16:22 33.946934 -118.400612 262 121ft 0kts
04-Nov-19 16:23 33.946934 -118.400612 262 121ft 0kts
04-Nov-19 16:24 33.946934 -118.400612 262 121ft 0kts
04-Nov-19 16:25 33.946934 -118.400612 262 121ft 0kts
04-Nov-19 16:26 33.946934 -118.400612 262 121ft 0kts
04-Nov-19 16:27 33.946934 -118.400612 262 121ft 0kts
04-Nov-19 16:28 33.946934 -118.400612 262 121ft 0kts
04-Nov-19 16:29 33.946934 -118.400612 262 121ft 0kts
04-Nov-19 16:30 33.946934 -118.400612 262 121ft 0kts
04-Nov-19 16:31 33.946934 -118.400612 262 121ft 0kts
04-Nov-19 16:32 33.946946 -118.400470 264 121ft 2kts
04-Nov-19 16:33 33.946687 -118.400084 358 121ft 1kts
04-Nov-19 16:34 33.946674 -118.400083 357 121ft 0kts
04-Nov-19 16:35 33.946674 -118.400083 357 121ft 0kts
04-Nov-19 16:36 33.946890 -118.400095 357 121ft 2kts
04-Nov-19 16:37 33.948407 -118.400302 297 120ft 5kts
04-Nov-19 16:39 33.949213 -118.400398 83 119ft 5kts
04-Nov-19 16:40 33.949476 -118.399264 42 117ft 0kts
04-Nov-19 16:41 33.949593 -118.399137 42 117ft 1kts
04-Nov-19 16:42 33.949736 -118.398983 41 117ft 0kts
04-Nov-19 16:43 33.949786 -118.398936 36 117ft 1kts
04-Nov-19 16:44 33.950325 -118.399119 298 117ft 7kts
04-Nov-19 16:45 33.948215 -118.420939 263 132ft 173kts
04-Nov-19 16:46 33.942896 -118.483897 268 2311ft 223kts
04-Nov-19 16:47 33.937647 -118.568393 265 4825ft 270kts
04-Nov-19 16:48 33.930604 -118.657823 264 5000ft 270kts
04-Nov-19 16:49 33.923606 -118.747998 264 5000ft 270kts
04-Nov-19 16:50 33.917137 -118.838406 269 5002ft 270kts
04-Nov-19 16:51 33.919791 -118.927069 272 5008ft 270kts
04-Nov-19 16:52 33.928006 -119.017950 291 7372ft 281kts
04-Nov-19 16:53 33.966431 -119.102051 303 10182ft 294kts
04-Nov-19 16:54 34.018101 -119.189450 319 11988ft 338kts
04-Nov-19 16:54 34.081818 -119.248222 326 13827ft 348kts
04-Nov-19 16:56 34.172562 -119.326129 327 16827ft 364kts
04-Nov-19 16:57 34.256444 -119.398475 328 19266ft 378kts
04-Nov-19 16:57 34.328734 -119.460964 329 21165ft 388kts
04-Nov-19 16:59 34.432383 -119.551689 327 23604ft 403kts
04-Nov-19 17:00 34.521928 -119.636836 327 25438ft 415kts
04-Nov-19 17:01 34.612807 -119.722606 327 27045ft 427kts
04-Nov-19 17:01 34.691470 -119.797069 327 28290ft 437kts
04-Nov-19 17:02 34.788504 -119.889172 327 29720ft 448kts
04-Nov-19 17:04 34.903401 -119.998584 326 31601ft 450kts
04-Nov-19 17:04 34.985065 -120.076612 326 32949ft 448kts
04-Nov-19 17:05 35.082925 -120.170366 325 34427ft 446kts
04-Nov-19 17:06 35.176852 -120.260625 325 35803ft 442kts
04-Nov-19 17:07 35.277065 -120.352405 326 36039ft 456kts
04-Nov-19 17:08 35.377510 -120.444485 326 36037ft 451kts
04-Nov-19 17:09 35.478251 -120.537106 326 36015ft 453kts
04-Nov-19 17:10 35.579695 -120.628892 328 36003ft 452kts
04-Nov-19 17:11 35.680534 -120.717928 327 35998ft 452kts
04-Nov-19 17:12 35.782545 -120.808372 327 35998ft 452kts
04-Nov-19 17:13 35.884246 -120.898864 327 36001ft 452kts
04-Nov-19 17:14 35.986139 -120.989829 327 36016ft 452kts
04-Nov-19 17:15 36.087419 -121.080549 326 36029ft 451kts
04-Nov-19 17:16 36.187807 -121.170749 326 36042ft 451kts
04-Nov-19 17:17 36.289155 -121.262117 326 36047ft 451kts
04-Nov-19 17:18 36.390189 -121.353499 326 36047ft 450kts
04-Nov-19 17:19 36.491040 -121.445012 326 36046ft 450kts
04-Nov-19 17:20 36.592485 -121.537368 326 36030ft 450kts
04-Nov-19 17:21 36.702268 -121.607341 348 36024ft 443kts
04-Nov-19 17:22 36.823689 -121.633334 353 36019ft 442kts
04-Nov-19 17:23 36.944435 -121.656059 352 36017ft 442kts
04-Nov-19 17:24 37.066366 -121.679156 352 36017ft 443kts
04-Nov-19 17:25 37.186954 -121.702068 352 36020ft 443kts
04-Nov-19 17:26 37.309256 -121.725380 352 36027ft 443kts
04-Nov-19 17:27 37.431149 -121.748695 352 36027ft 443kts
04-Nov-19 17:28 37.553506 -121.772173 351 36027ft 444kts
04-Nov-19 17:29 37.675495 -121.795657 351 36027ft 444kts
04-Nov-19 17:30 37.797678 -121.819257 351 36027ft 444kts
04-Nov-19 17:31 37.920221 -121.843011 351 36027ft 444kts
04-Nov-19 17:32 38.042074 -121.866701 351 36027ft 444kts
04-Nov-19 17:33 38.162869 -121.890270 351 36027ft 444kts
04-Nov-19 17:34 38.284942 -121.914167 351 36027ft 444kts
04-Nov-19 17:35 38.406977 -121.938144 351 36027ft 444kts
04-Nov-19 17:36 38.529187 -121.962229 351 36027ft 444kts
04-Nov-19 17:37 38.650698 -121.986262 351 36027ft 444kts
04-Nov-19 17:38 38.772528 -122.010443 350 36026ft 443kts
04-Nov-19 17:39 38.894839 -122.034800 350 36027ft 446kts
04-Nov-19 17:40 39.017014 -122.059216 350 36024ft 445kts
04-Nov-19 17:41 39.137949 -122.083467 350 36024ft 446kts
04-Nov-19 17:42 39.260484 -122.108126 350 36025ft 446kts
04-Nov-19 17:43 39.382546 -122.132778 350 36026ft 445kts
04-Nov-19 17:44 39.504806 -122.157557 350 36026ft 445kts
04-Nov-19 17:45 39.627035 -122.182415 350 36109ft 445kts
04-Nov-19 17:46 39.749338 -122.207382 349 36173ft 446kts
04-Nov-19 17:47 39.871567 -122.232418 349 36173ft 445kts
04-Nov-19 17:48 39.993650 -122.257518 349 36173ft 445kts
04-Nov-19 17:49 40.114634 -122.282480 349 36173ft 445kts
04-Nov-19 17:50 40.236753 -122.307771 349 36118ft 446kts
04-Nov-19 17:51 40.358980 -122.333172 349 36028ft 445kts
04-Nov-19 17:52 40.481407 -122.358713 349 36026ft 446kts
04-Nov-19 17:53 40.603669 -122.384307 349 36026ft 445kts
04-Nov-19 17:54 40.726357 -122.410093 349 36074ft 445kts
04-Nov-19 17:55 40.848369 -122.435827 349 36135ft 445kts
04-Nov-19 17:56 40.970816 -122.461751 349 36136ft 445kts
04-Nov-19 17:57 41.093240 -122.487768 349 36136ft 445kts
04-Nov-19 17:58 41.212937 -122.513302 349 36135ft 444kts
04-Nov-19 17:59 41.334904 -122.539413 349 36146ft 444kts
04-Nov-19 18:00 41.456766 -122.565604 349 36179ft 444kts
04-Nov-19 18:01 41.578368 -122.591839 349 36181ft 444kts
04-Nov-19 18:02 41.700522 -122.618291 349 36181ft 444kts
04-Nov-19 18:03 41.822288 -122.644761 349 36181ft 444kts
04-Nov-19 18:04 41.943383 -122.671190 348 36181ft 444kts
04-Nov-19 18:05 42.064957 -122.697822 348 36147ft 443kts
04-Nov-19 18:06 42.185242 -122.724278 348 36138ft 443kts
04-Nov-19 18:07 42.306602 -122.751068 348 36137ft 443kts
04-Nov-19 18:08 42.427591 -122.777884 348 36137ft 443kts
04-Nov-19 18:09 42.548882 -122.804870 348 36137ft 442kts
04-Nov-19 18:10 42.670129 -122.831954 348 36153ft 442kts
04-Nov-19 18:11 42.791029 -122.859070 348 36165ft 442kts
04-Nov-19 18:12 42.913830 -122.867424 1 36166ft 445kts
04-Nov-19 18:13 43.037012 -122.855859 1 36165ft 445kts
04-Nov-19 18:14 43.159183 -122.844846 1 36176ft 445kts
04-Nov-19 18:15 43.282664 -122.833656 1 36183ft 444kts
04-Nov-19 18:16 43.405638 -122.822466 1 36183ft 444kts
04-Nov-19 18:17 43.528725 -122.811095 1 36191ft 443kts
04-Nov-19 18:18 43.651133 -122.799781 1 36192ft 443kts
04-Nov-19 18:19 43.774357 -122.788354 1 36202ft 454kts
04-Nov-19 18:20 43.901614 -122.776477 1 36199ft 457kts
04-Nov-19 18:21 44.027904 -122.764663 1 36173ft 452kts
04-Nov-19 18:22 44.150927 -122.753089 1 32213ft 448kts
04-Nov-19 18:23 44.273901 -122.740952 1 28285ft 434kts
04-Nov-19 18:24 44.391199 -122.729412 1 26286ft 422kts
04-Nov-19 18:25 44.504343 -122.718179 1 23591ft 388kts
04-Nov-19 18:26 44.606818 -122.707983 1 21960ft 355kts
04-Nov-19 18:27 44.704323 -122.698195 1 19820ft 348kts
04-Nov-19 18:28 44.799811 -122.688588 1 17515ft 345kts
04-Nov-19 18:29 44.890830 -122.679394 1 15458ft 308kts
04-Nov-19 18:30 44.969557 -122.671454 0 14393ft 273kts
04-Nov-19 18:31 45.050911 -122.663237 1 12707ft 292kts
04-Nov-19 18:32 45.130970 -122.655092 1 11081ft 284kts
04-Nov-19 18:33 45.207524 -122.647264 1 9851ft 261kts
04-Nov-19 18:34 45.277274 -122.658387 338 8898ft 237kts
04-Nov-19 18:35 45.342737 -122.694124 337 8205ft 254kts
04-Nov-19 18:36 45.408681 -122.730262 338 6763ft 255kts
04-Nov-19 18:37 45.473444 -122.765858 338 5573ft 232kts
04-Nov-19 18:38 45.528913 -122.796429 338 5027ft 204kts
04-Nov-19 18:39 45.581379 -122.836068 312 5001ft 216kts
04-Nov-19 18:40 45.614668 -122.908162 302 4998ft 217kts
04-Nov-19 18:41 45.652156 -122.974094 319 4996ft 215kts
04-Nov-19 18:42 45.697981 -123.029729 320 4994ft 216kts
04-Nov-19 18:43 45.744226 -123.084694 334 4981ft 214kts
04-Nov-19 18:44 45.770448 -123.032238 115 4159ft 223kts
04-Nov-19 18:45 45.738678 -122.956225 124 3996ft 224kts
04-Nov-19 18:46 45.699123 -122.887247 121 3999ft 224kts
04-Nov-19 18:47 45.667468 -122.808332 118 2992ft 229kts
04-Nov-19 18:48 45.639113 -122.734901 118 1846ft 186kts
04-Nov-19 18:49 45.616670 -122.676939 118 925ft 150kts
04-Nov-19 18:50 45.596398 -122.624696 118 93ft 152kts
04-Nov-19 18:52 45.586285 -122.598373 97 30ft 23kts
04-Nov-19 18:53 45.586706 -122.597241 26 29ft 0kts
04-Nov-19 18:54 45.587758 -122.596639 34 30ft 1kts
04-Nov-19 18:55 45.587877 -122.596558 346 30ft 0kts
04-Nov-19 18:56 45.588195 -122.596526 36 30ft 2kts

Navigation Log

Ident Type
Flight plan parsing failed, navigation log unavailable